Time;durP1;ratioP1;P1;durP2;ratioP2;P2;SDS_P1;SDS_P2;PMS_P1;PMS_P2;Temp;Humidity;BMP_temperature;BMP_pressure;BME280_temperature;BME280_humidity;BME280_pressure;Samples;Min_cycle;Max_cycle;Signal;HPM_P1;HPM_P2
2022/02/16 00:01:40;;;;;;;7.18;1.90;;;;;;;;;;5116404;28;20439;-62
2022/02/16 00:04:06;;;;;;;6.70;1.63;;;;;;;;;;5116286;28;20057;-64
2022/02/16 00:06:32;;;;;;;6.85;1.55;;;;;;;;;;5112649;27;20019;-64
2022/02/16 00:08:58;;;;;;;3.75;1.50;;;;;;;;;;5118341;27;20042;-62
2022/02/16 00:11:24;;;;;;;5.22;1.33;;;;;;;;;;5135828;27;20027;-61
2022/02/16 00:13:50;;;;;;;5.20;1.17;;;;;;;;;;5116961;27;20024;-61
2022/02/16 00:16:16;;;;;;;4.18;1.35;;;;;;;;;;5115895;28;20415;-61
2022/02/16 00:18:42;;;;;;;6.30;1.50;;;;;;;;;;5129643;27;20035;-62
2022/02/16 00:21:08;;;;;;;4.70;1.30;;;;;;;;;;5129727;27;20107;-61
2022/02/16 00:23:34;;;;;;;5.20;1.70;;;;;;;;;;5118200;27;20034;-63
2022/02/16 00:26:02;;;;;;;8.77;1.75;;;;;;;;;;5136425;27;20050;-66
2022/02/16 00:28:28;;;;;;;6.55;1.50;;;;;;;;;;5137471;27;20039;-68
2022/02/16 00:30:54;;;;;;;10.45;1.30;;;;;;;;;;5137081;27;20098;-71
2022/02/16 00:33:20;;;;;;;9.88;1.38;;;;;;;;;;5136721;27;20026;-63
2022/02/16 00:35:46;;;;;;;10.88;1.58;;;;;;;;;;5101553;28;20089;-65
2022/02/16 00:38:12;;;;;;;11.90;1.65;;;;;;;;;;5126598;27;20019;-64
2022/02/16 00:40:38;;;;;;;19.77;1.90;;;;;;;;;;5122622;27;20150;-64
2022/02/16 00:43:04;;;;;;;7.38;1.40;;;;;;;;;;5125185;27;20103;-62
2022/02/16 00:45:32;;;;;;;10.77;1.70;;;;;;;;;;5121552;27;20126;-66
2022/02/16 00:47:58;;;;;;;11.30;1.50;;;;;;;;;;5125079;27;20138;-66
2022/02/16 00:50:24;;;;;;;17.27;1.60;;;;;;;;;;5120623;27;20080;-66
2022/02/16 00:52:50;;;;;;;4.65;1.48;;;;;;;;;;5122328;27;20051;-66
2022/02/16 00:55:16;;;;;;;8.25;1.20;;;;;;;;;;5115441;28;20024;-66
2022/02/16 00:57:42;;;;;;;6.57;1.30;;;;;;;;;;5115374;28;20455;-66
2022/02/16 01:00:09;;;;;;;5.13;1.33;;;;;;;;;;5121659;27;20409;-66
2022/02/16 01:02:35;;;;;;;4.45;1.38;;;;;;;;;;5117425;27;20080;-66
2022/02/16 01:05:01;;;;;;;5.15;1.23;;;;;;;;;;5096893;28;20016;-65
2022/02/16 01:07:27;;;;;;;4.57;1.23;;;;;;;;;;5096398;28;20019;-66
2022/02/16 01:09:53;;;;;;;7.15;1.58;;;;;;;;;;5113926;28;20035;-66
2022/02/16 01:12:19;;;;;;;6.50;1.23;;;;;;;;;;5096405;28;20059;-66
2022/02/16 01:14:45;;;;;;;3.40;1.35;;;;;;;;;;5114855;28;20034;-66
2022/02/16 01:17:14;;;;;;;4.15;1.38;;;;;;;;;;5116961;27;20069;-66
2022/02/16 01:19:40;;;;;;;4.85;1.42;;;;;;;;;;5125711;27;20070;-63
2022/02/16 01:22:07;;;;;;;5.68;1.65;;;;;;;;;;5135299;27;20031;-67
2022/02/16 01:24:33;;;;;;;3.67;1.40;;;;;;;;;;5134626;27;20043;-66
2022/02/16 01:26:59;;;;;;;6.40;1.10;;;;;;;;;;5114652;28;20023;-67
2022/02/16 01:29:26;;;;;;;8.43;1.42;;;;;;;;;;5114647;28;20104;-64
2022/02/16 01:31:52;;;;;;;3.50;1.20;;;;;;;;;;5114601;28;20019;-65
2022/02/16 01:34:18;;;;;;;4.10;1.23;;;;;;;;;;5121383;27;20106;-65
2022/02/16 01:36:44;;;;;;;2.75;1.20;;;;;;;;;;5108180;27;20064;-63
2022/02/16 01:39:10;;;;;;;5.20;1.60;;;;;;;;;;5135039;27;20027;-66
2022/02/16 01:41:36;;;;;;;3.08;0.90;;;;;;;;;;5116665;27;20497;-66
2022/02/16 01:44:03;;;;;;;3.80;1.20;;;;;;;;;;5097142;28;20145;-65
2022/02/16 01:46:29;;;;;;;6.25;1.23;;;;;;;;;;5114557;28;20055;-64
2022/02/16 01:48:55;;;;;;;6.22;1.30;;;;;;;;;;5119344;27;20127;-65
2022/02/16 01:51:21;;;;;;;3.75;1.23;;;;;;;;;;5126430;27;20102;-65
2022/02/16 01:53:47;;;;;;;3.15;1.58;;;;;;;;;;5134678;27;20427;-63
2022/02/16 01:56:14;;;;;;;2.78;1.20;;;;;;;;;;5134818;27;20122;-66
2022/02/16 01:58:40;;;;;;;2.00;1.10;;;;;;;;;;5135142;27;20498;-67
2022/02/16 02:01:07;;;;;;;3.15;1.20;;;;;;;;;;5134708;27;20062;-66
2022/02/16 02:03:33;;;;;;;4.65;1.33;;;;;;;;;;5135274;27;20023;-66
2022/02/16 02:06:00;;;;;;;4.38;1.25;;;;;;;;;;5129871;27;20027;-66
2022/02/16 02:08:26;;;;;;;3.83;1.52;;;;;;;;;;5114346;28;20027;-65
2022/02/16 02:10:52;;;;;;;4.22;1.50;;;;;;;;;;5114198;28;20026;-63
2022/02/16 02:13:19;;;;;;;5.22;1.67;;;;;;;;;;5114418;28;20031;-62
2022/02/16 02:15:45;;;;;;;6.25;1.40;;;;;;;;;;5113293;28;20028;-63
2022/02/16 02:18:18;;;;;;;7.40;1.85;;;;;;;;;;5125039;27;20026;-62
2022/02/16 02:20:44;;;;;;;5.00;1.83;;;;;;;;;;5125208;27;20378;-63
2022/02/16 02:23:11;;;;;;;5.22;1.85;;;;;;;;;;5127036;27;20066;-66
2022/02/16 02:25:50;;;;;;;4.80;1.67;;;;;;;;;;5122435;27;20034;-65
2022/02/16 02:28:17;;;;;;;3.97;1.80;;;;;;;;;;5113384;28;20051;-65
2022/02/16 02:30:43;;;;;;;3.95;1.58;;;;;;;;;;5113755;28;20031;-64
2022/02/16 02:33:09;;;;;;;3.95;1.65;;;;;;;;;;5113831;28;20026;-63
2022/02/16 02:35:35;;;;;;;5.25;2.00;;;;;;;;;;5113980;28;20371;-64
2022/02/16 02:38:01;;;;;;;6.78;2.00;;;;;;;;;;5095342;28;20028;-66
2022/02/16 02:40:27;;;;;;;5.25;1.75;;;;;;;;;;5113559;28;20054;-66
2022/02/16 02:42:53;;;;;;;6.53;1.90;;;;;;;;;;5113229;28;20476;-66
2022/02/16 02:45:19;;;;;;;3.60;1.40;;;;;;;;;;5113275;28;20024;-65
2022/02/16 02:47:45;;;;;;;5.47;1.80;;;;;;;;;;5127958;27;20027;-66
2022/02/16 02:50:11;;;;;;;4.43;1.58;;;;;;;;;;5119727;27;20054;-64
2022/02/16 02:52:37;;;;;;;8.70;1.98;;;;;;;;;;5113004;28;20024;-63
2022/02/16 02:55:04;;;;;;;4.70;1.70;;;;;;;;;;5113453;28;20024;-65
2022/02/16 02:57:30;;;;;;;3.72;1.73;;;;;;;;;;5113767;28;20045;-66
2022/02/16 02:59:56;;;;;;;6.85;1.85;;;;;;;;;;5113822;28;20363;-66
2022/02/16 03:02:23;;;;;;;5.20;1.88;;;;;;;;;;5120467;27;20027;-65
2022/02/16 03:04:49;;;;;;;6.10;2.10;;;;;;;;;;5122322;28;20023;-64
2022/02/16 03:07:15;;;;;;;4.60;1.55;;;;;;;;;;5094670;28;20050;-65
2022/02/16 03:09:41;;;;;;;6.60;2.08;;;;;;;;;;5112918;28;20050;-63
2022/02/16 03:12:07;;;;;;;7.10;2.20;;;;;;;;;;5113141;28;20068;-63
2022/02/16 03:14:34;;;;;;;6.72;1.55;;;;;;;;;;5113162;28;20020;-66
2022/02/16 03:17:00;;;;;;;4.75;2.08;;;;;;;;;;5113469;28;20344;-65
2022/02/16 03:19:26;;;;;;;6.70;1.90;;;;;;;;;;5131445;27;20474;-64
2022/02/16 03:21:52;;;;;;;7.38;2.20;;;;;;;;;;5121106;28;20035;-65
2022/02/16 03:24:18;;;;;;;3.88;1.65;;;;;;;;;;5113073;28;20035;-62
2022/02/16 03:26:44;;;;;;;6.72;1.58;;;;;;;;;;5112681;28;20450;-63
2022/02/16 03:29:10;;;;;;;5.80;1.80;;;;;;;;;;5112840;28;20055;-62
2022/02/16 03:31:37;;;;;;;5.05;1.70;;;;;;;;;;5113117;28;20024;-63
2022/02/16 03:34:03;;;;;;;6.80;1.92;;;;;;;;;;5115602;28;20508;-65
2022/02/16 03:36:29;;;;;;;4.38;1.55;;;;;;;;;;5116733;28;20030;-64
2022/02/16 03:38:55;;;;;;;5.43;1.80;;;;;;;;;;5116926;28;20027;-63
2022/02/16 03:41:21;;;;;;;6.35;1.80;;;;;;;;;;5098497;28;20110;-63
2022/02/16 03:43:47;;;;;;;4.20;1.63;;;;;;;;;;5115739;27;20466;-63
2022/02/16 03:46:13;;;;;;;5.25;1.90;;;;;;;;;;5137097;27;20027;-63
2022/02/16 03:48:39;;;;;;;5.03;1.92;;;;;;;;;;5137025;27;20035;-67
2022/02/16 03:51:05;;;;;;;4.50;1.85;;;;;;;;;;5119196;27;20028;-68
2022/02/16 03:53:31;;;;;;;7.53;1.52;;;;;;;;;;5135800;27;20031;-65
2022/02/16 03:55:57;;;;;;;3.97;1.50;;;;;;;;;;5111047;27;20106;-63
2022/02/16 03:58:23;;;;;;;4.90;1.65;;;;;;;;;;5136822;27;20555;-62
2022/02/16 04:00:49;;;;;;;11.23;1.83;;;;;;;;;;5137185;27;20037;-61
2022/02/16 04:03:15;;;;;;;3.63;1.60;;;;;;;;;;5137134;27;20023;-62
2022/02/16 04:05:42;;;;;;;3.38;1.40;;;;;;;;;;5136366;27;20493;-66
2022/02/16 04:08:09;;;;;;;4.55;1.50;;;;;;;;;;5137125;27;20028;-65
2022/02/16 04:10:35;;;;;;;3.83;1.80;;;;;;;;;;5118511;27;20136;-65
2022/02/16 04:13:01;;;;;;;3.13;1.23;;;;;;;;;;5118584;27;20052;-64
2022/02/16 04:15:27;;;;;;;3.42;1.50;;;;;;;;;;5137047;27;20106;-63
2022/02/16 04:17:53;;;;;;;2.58;1.27;;;;;;;;;;5133250;27;20016;-65
2022/02/16 04:20:19;;;;;;;3.67;1.35;;;;;;;;;;5122537;27;20088;-64
2022/02/16 04:22:47;;;;;;;3.55;1.38;;;;;;;;;;5127691;27;20055;-62
2022/02/16 04:25:13;;;;;;;2.75;1.33;;;;;;;;;;5123259;27;20447;-65
2022/02/16 04:27:39;;;;;;;2.60;1.10;;;;;;;;;;5115893;28;20036;-66
2022/02/16 04:30:06;;;;;;;3.67;1.40;;;;;;;;;;5115721;28;20032;-65
2022/02/16 04:32:32;;;;;;;2.70;1.30;;;;;;;;;;5115797;28;20027;-66
2022/02/16 04:34:58;;;;;;;3.22;1.35;;;;;;;;;;5115673;28;20024;-66
2022/02/16 04:37:24;;;;;;;4.35;1.50;;;;;;;;;;5097599;28;20035;-64
2022/02/16 04:39:50;;;;;;;2.13;1.10;;;;;;;;;;5116285;28;20023;-65
2022/02/16 04:42:16;;;;;;;3.88;1.13;;;;;;;;;;5101602;27;20027;-66
2022/02/16 04:44:42;;;;;;;2.38;1.23;;;;;;;;;;5135247;27;20030;-64
2022/02/16 04:47:09;;;;;;;1.65;1.00;;;;;;;;;;5136167;27;20027;-66
2022/02/16 04:49:35;;;;;;;2.17;1.10;;;;;;;;;;5136079;27;20038;-66
2022/02/16 04:52:01;;;;;;;2.25;1.20;;;;;;;;;;5130176;27;20027;-68
2022/02/16 04:54:27;;;;;;;1.48;0.95;;;;;;;;;;5114100;27;20038;-65
2022/02/16 04:56:53;;;;;;;2.97;1.05;;;;;;;;;;5117584;27;20019;-63
2022/02/16 04:59:19;;;;;;;2.65;1.10;;;;;;;;;;5136209;27;20066;-66
2022/02/16 05:01:45;;;;;;;2.72;1.00;;;;;;;;;;5117556;27;20122;-66
2022/02/16 05:04:11;;;;;;;2.60;1.15;;;;;;;;;;5136094;27;20079;-67
2022/02/16 05:06:38;;;;;;;1.75;0.77;;;;;;;;;;5135720;27;20076;-65
2022/02/16 05:09:05;;;;;;;1.75;0.90;;;;;;;;;;5111374;28;20536;-64
2022/02/16 05:11:31;;;;;;;1.35;0.80;;;;;;;;;;5104809;28;20020;-63
2022/02/16 05:13:57;;;;;;;1.45;0.80;;;;;;;;;;5115104;28;20053;-64
2022/02/16 05:16:23;;;;;;;2.25;0.90;;;;;;;;;;5114459;28;20487;-63
2022/02/16 05:18:49;;;;;;;1.42;0.98;;;;;;;;;;5131257;27;20035;-67
2022/02/16 05:21:16;;;;;;;1.17;0.68;;;;;;;;;;5101658;28;20027;-67
2022/02/16 05:23:42;;;;;;;1.58;0.80;;;;;;;;;;5118200;27;20015;-66
2022/02/16 05:26:08;;;;;;;2.25;1.00;;;;;;;;;;5126514;27;20031;-65
2022/02/16 05:28:34;;;;;;;1.02;0.80;;;;;;;;;;5134741;27;20050;-64
2022/02/16 05:31:00;;;;;;;1.90;0.90;;;;;;;;;;5135328;27;20023;-64
2022/02/16 05:33:26;;;;;;;1.40;0.80;;;;;;;;;;5117013;27;20027;-63
2022/02/16 05:35:53;;;;;;;2.05;0.73;;;;;;;;;;5135133;27;20598;-65
2022/02/16 05:38:19;;;;;;;1.73;0.85;;;;;;;;;;5135327;27;20023;-65
2022/02/16 05:40:45;;;;;;;4.95;0.80;;;;;;;;;;5135113;27;20037;-65
2022/02/16 05:43:13;;;;;;;1.10;0.77;;;;;;;;;;5122609;27;20721;-65
2022/02/16 05:45:39;;;;;;;1.50;0.73;;;;;;;;;;5114509;28;20023;-65
2022/02/16 05:48:06;;;;;;;0.60;0.60;;;;;;;;;;5114477;28;20115;-65
2022/02/16 05:50:32;;;;;;;0.93;0.63;;;;;;;;;;5114168;28;20063;-64
2022/02/16 05:52:58;;;;;;;1.25;0.70;;;;;;;;;;5114385;28;20019;-64
2022/02/16 05:55:24;;;;;;;0.82;0.63;;;;;;;;;;5118491;27;20023;-63
2022/02/16 05:57:50;;;;;;;5.95;0.80;;;;;;;;;;5126035;27;20027;-64
2022/02/16 06:00:16;;;;;;;1.50;0.77;;;;;;;;;;5134529;27;20023;-64
2022/02/16 06:02:42;;;;;;;2.33;0.77;;;;;;;;;;5116009;27;20031;-64
2022/02/16 06:05:08;;;;;;;0.85;0.60;;;;;;;;;;5116231;27;20035;-65
2022/02/16 06:07:34;;;;;;;0.95;0.60;;;;;;;;;;5134600;27;20482;-63
2022/02/16 06:10:00;;;;;;;4.60;0.70;;;;;;;;;;5133821;27;20035;-62
2022/02/16 06:12:26;;;;;;;0.70;0.60;;;;;;;;;;5134214;27;20072;-65
2022/02/16 06:14:52;;;;;;;2.20;0.90;;;;;;;;;;5115811;27;20027;-65
2022/02/16 06:17:18;;;;;;;3.63;0.60;;;;;;;;;;5132558;27;20075;-65
2022/02/16 06:19:44;;;;;;;1.90;0.65;;;;;;;;;;5125309;27;20038;-64
2022/02/16 06:22:10;;;;;;;1.42;0.70;;;;;;;;;;5113996;28;20050;-65
2022/02/16 06:24:36;;;;;;;0.85;0.60;;;;;;;;;;5114423;27;20402;-66
2022/02/16 06:27:03;;;;;;;0.95;0.60;;;;;;;;;;5110065;28;20467;-62
2022/02/16 06:29:29;;;;;;;2.28;0.63;;;;;;;;;;5130408;27;20486;-65
2022/02/16 06:31:57;;;;;;;0.70;0.60;;;;;;;;;;5133980;27;20033;-65
2022/02/16 06:34:22;;;;;;;0.82;0.60;;;;;;;;;;5134056;27;20079;-65
2022/02/16 06:36:49;;;;;;;11.23;0.90;;;;;;;;;;5115716;27;20031;-65
2022/02/16 06:39:15;;;;;;;0.40;0.40;;;;;;;;;;5134213;27;20031;-65
2022/02/16 06:41:41;;;;;;;7.40;0.70;;;;;;;;;;5134564;27;20103;-65
2022/02/16 06:44:07;;;;;;;5.00;0.57;;;;;;;;;;5114375;28;20415;-69
2022/02/16 06:46:33;;;;;;;0.68;0.50;;;;;;;;;;5113058;28;20038;-68
2022/02/16 06:48:59;;;;;;;1.92;0.50;;;;;;;;;;5095055;28;20040;-67
2022/02/16 06:51:25;;;;;;;2.63;0.40;;;;;;;;;;5114350;28;20485;-68
2022/02/16 06:53:55;;;;;;;3.67;0.50;;;;;;;;;;5113793;28;20035;-67
2022/02/16 06:56:21;;;;;;;5.07;0.60;;;;;;;;;;5125267;27;20092;-66
2022/02/16 06:58:47;;;;;;;0.73;0.43;;;;;;;;;;5126471;27;20112;-66
2022/02/16 07:01:13;;;;;;;6.22;0.57;;;;;;;;;;5133470;27;20107;-68
2022/02/16 07:03:39;;;;;;;0.40;0.40;;;;;;;;;;5134265;28;20051;-70
2022/02/16 07:06:05;;;;;;;1.00;0.60;;;;;;;;;;5133753;28;20386;-69
2022/02/16 07:08:31;;;;;;;0.60;0.47;;;;;;;;;;5117516;27;20019;-69
2022/02/16 07:10:57;;;;;;;0.80;0.50;;;;;;;;;;5138230;27;20031;-69
2022/02/16 07:13:23;;;;;;;0.98;0.52;;;;;;;;;;5138001;27;20034;-67
2022/02/16 07:15:51;;;;;;;3.03;0.55;;;;;;;;;;5126610;27;20421;-68
2022/02/16 07:18:17;;;;;;;2.50;0.60;;;;;;;;;;5117822;28;20233;-64
2022/02/16 07:20:43;;;;;;;1.30;0.60;;;;;;;;;;5128166;27;20098;-66
2022/02/16 07:23:09;;;;;;;1.63;0.60;;;;;;;;;;5138340;27;20039;-67
2022/02/16 07:25:35;;;;;;;5.47;0.90;;;;;;;;;;5121770;27;20024;-68
2022/02/16 07:28:02;;;;;;;2.67;0.70;;;;;;;;;;5117461;28;20409;-70
2022/02/16 07:30:29;;;;;;;3.42;0.80;;;;;;;;;;5122049;27;20027;-69
2022/02/16 07:32:55;;;;;;;3.15;0.82;;;;;;;;;;5129289;27;20042;-68
2022/02/16 07:35:21;;;;;;;3.40;1.10;;;;;;;;;;5137835;27;20073;-67
2022/02/16 07:37:47;;;;;;;6.15;1.27;;;;;;;;;;5137944;27;20020;-67
2022/02/16 07:40:13;;;;;;;4.85;1.17;;;;;;;;;;5137396;27;20023;-64
2022/02/16 07:42:39;;;;;;;3.95;1.13;;;;;;;;;;5119339;27;20408;-69
2022/02/16 07:45:06;;;;;;;7.90;1.20;;;;;;;;;;5137570;27;20099;-69
2022/02/16 07:47:32;;;;;;;4.90;1.20;;;;;;;;;;5137685;27;20035;-70
2022/02/16 07:49:58;;;;;;;3.28;1.10;;;;;;;;;;5138349;27;20042;-68
2022/02/16 07:52:24;;;;;;;6.97;1.67;;;;;;;;;;5137701;27;20152;-67
2022/02/16 07:54:51;;;;;;;9.52;1.88;;;;;;;;;;5137637;27;20027;-67
2022/02/16 07:57:16;;;;;;;5.95;1.65;;;;;;;;;;5126324;27;20814;-66
2022/02/16 07:59:42;;;;;;;6.55;1.20;;;;;;;;;;5135038;27;20102;-70
2022/02/16 08:02:08;;;;;;;8.57;1.40;;;;;;;;;;5137466;27;20022;-70
2022/02/16 08:04:34;;;;;;;9.23;1.88;;;;;;;;;;5137154;27;20455;-70
2022/02/16 08:07:01;;;;;;;7.28;1.70;;;;;;;;;;5118855;27;20570;-72
2022/02/16 08:09:28;;;;;;;13.73;1.60;;;;;;;;;;5118611;27;20035;-71
2022/02/16 08:11:54;;;;;;;28.38;2.28;;;;;;;;;;5117169;27;20019;-68
2022/02/16 08:14:21;;;;;;;13.65;1.95;;;;;;;;;;5116220;28;20035;-70
2022/02/16 08:16:47;;;;;;;16.75;2.10;;;;;;;;;;5116672;28;20533;-71
2022/02/16 08:19:13;;;;;;;20.13;2.25;;;;;;;;;;5129301;27;20646;-69
2022/02/16 08:21:40;;;;;;;8.55;1.75;;;;;;;;;;5134115;27;20039;-67
2022/02/16 08:24:07;;;;;;;17.33;2.10;;;;;;;;;;5136537;27;20120;-68
2022/02/16 08:26:34;;;;;;;26.80;1.95;;;;;;;;;;5118612;27;20015;-67
2022/02/16 08:29:00;;;;;;;38.20;3.17;;;;;;;;;;5113917;28;20071;-68
2022/02/16 08:31:26;;;;;;;46.05;3.33;;;;;;;;;;5115493;28;20047;-68
2022/02/16 08:33:52;;;;;;;35.85;2.85;;;;;;;;;;5102382;28;20387;-65
2022/02/16 08:36:18;;;;;;;17.23;2.42;;;;;;;;;;5115536;28;20490;-73
2022/02/16 08:38:44;;;;;;;23.95;2.60;;;;;;;;;;5115601;28;20112;-70
2022/02/16 08:41:13;;;;;;;20.70;2.40;;;;;;;;;;5115458;28;20040;-72
2022/02/16 08:43:39;;;;;;;16.60;2.40;;;;;;;;;;5115856;28;20022;-72
2022/02/16 08:46:05;;;;;;;14.68;2.67;;;;;;;;;;5097337;28;20028;-71
2022/02/16 08:48:30;;;;;;;16.05;2.47;;;;;;;;;;5115362;28;20512;-68
2022/02/16 08:50:57;;;;;;;15.02;2.72;;;;;;;;;;5115570;28;20034;-68
2022/02/16 08:53:26;;;;;;;14.43;2.38;;;;;;;;;;5115520;28;20382;-69
2022/02/16 08:55:52;;;;;;;20.13;2.65;;;;;;;;;;5097306;28;20111;-67
2022/02/16 08:58:19;;;;;;;13.70;2.13;;;;;;;;;;5115730;28;20031;-69
2022/02/16 09:00:45;;;;;;;9.32;2.00;;;;;;;;;;5097537;28;20379;-73
2022/02/16 09:03:11;;;;;;;13.18;2.65;;;;;;;;;;5119966;27;20111;-73
2022/02/16 09:05:37;;;;;;;16.55;2.63;;;;;;;;;;5125986;27;20059;-71
2022/02/16 09:08:03;;;;;;;9.35;2.28;;;;;;;;;;5115557;28;20481;-70
2022/02/16 09:10:29;;;;;;;8.82;2.20;;;;;;;;;;5115122;28;20102;-69
2022/02/16 09:12:55;;;;;;;15.90;2.47;;;;;;;;;;5097030;28;20051;-71
2022/02/16 09:15:25;;;;;;;19.60;2.55;;;;;;;;;;5115644;28;20035;-70
2022/02/16 09:17:52;;;;;;;9.25;2.00;;;;;;;;;;5123976;27;20019;-71
2022/02/16 09:20:18;;;;;;;8.65;2.08;;;;;;;;;;5127211;27;20060;-70
2022/02/16 09:22:44;;;;;;;14.20;2.38;;;;;;;;;;5117022;27;20019;-70
2022/02/16 09:25:10;;;;;;;7.63;2.13;;;;;;;;;;5104236;28;20019;-70
2022/02/16 09:27:36;;;;;;;8.35;1.80;;;;;;;;;;5114875;28;20059;-76
2022/02/16 09:30:02;;;;;;;11.48;2.20;;;;;;;;;;5115477;28;20088;-74
2022/02/16 09:32:28;;;;;;;9.32;2.03;;;;;;;;;;5133707;27;20030;-75
2022/02/16 09:34:55;;;;;;;9.20;2.03;;;;;;;;;;5132191;27;20020;-75
2022/02/16 09:37:21;;;;;;;10.25;2.20;;;;;;;;;;5120600;27;20529;-73
2022/02/16 09:39:47;;;;;;;9.98;2.38;;;;;;;;;;5129223;27;20019;-66
2022/02/16 09:42:13;;;;;;;16.08;2.28;;;;;;;;;;5121669;27;20027;-63
2022/02/16 09:44:44;;;;;;;9.57;2.38;;;;;;;;;;5118317;27;20023;-62
2022/02/16 09:47:11;;;;;;;14.15;2.90;;;;;;;;;;5122476;27;20027;-68
2022/02/16 09:49:38;;;;;;;8.38;2.35;;;;;;;;;;5122812;27;20107;-62
2022/02/16 09:52:05;;;;;;;9.27;2.30;;;;;;;;;;5128426;27;20012;-63
2022/02/16 09:54:31;;;;;;;9.63;2.10;;;;;;;;;;5126052;27;20023;-64
2022/02/16 09:56:58;;;;;;;13.85;2.47;;;;;;;;;;5123471;27;20024;-63
2022/02/16 09:59:24;;;;;;;8.90;2.10;;;;;;;;;;5128954;27;20027;-63
2022/02/16 10:02:01;;;;;;;12.98;2.45;;;;;;;;;;5134458;27;20023;-68
2022/02/16 10:04:28;;;;;;;10.27;2.60;;;;;;;;;;5133916;27;20118;-76
2022/02/16 10:06:54;;;;;;;10.77;2.67;;;;;;;;;;5134961;27;20015;-67
2022/02/16 10:09:31;;;;;;;15.43;2.30;;;;;;;;;;5133404;27;20382;-64
2022/02/16 10:11:59;;;;;;;11.88;2.10;;;;;;;;;;5133133;27;20363;-65
2022/02/16 10:14:29;;;;;;;16.00;2.08;;;;;;;;;;5120047;27;20616;-66
2022/02/16 10:16:55;;;;;;;12.57;2.40;;;;;;;;;;5124547;27;20091;-68
2022/02/16 10:19:22;;;;;;;11.00;2.40;;;;;;;;;;5103573;27;20020;-70
2022/02/16 10:22:00;;;;;;;16.02;2.33;;;;;;;;;;5126065;27;20030;-64
2022/02/16 10:24:27;;;;;;;22.08;2.53;;;;;;;;;;5128322;27;20379;-74
2022/02/16 10:26:53;;;;;;;20.55;2.75;;;;;;;;;;5095580;28;20023;-69
2022/02/16 10:29:20;;;;;;;20.33;2.97;;;;;;;;;;5113877;28;20054;-72
2022/02/16 10:38:01;;;;;;;23.17;2.55;;;;;;;;;;5090271;27;20342;-69
2022/02/16 10:40:27;;;;;;;23.95;3.03;;;;;;;;;;5082616;28;20452;-70
2022/02/16 10:42:56;;;;;;;20.73;2.65;;;;;;;;;;5104019;28;20103;-70
2022/02/16 10:45:22;;;;;;;17.80;2.53;;;;;;;;;;5110282;28;20024;-68
2022/02/16 10:48:04;;;;;;;16.05;2.97;;;;;;;;;;5110697;28;20028;-69
2022/02/16 10:50:32;;;;;;;12.13;2.57;;;;;;;;;;5110517;28;20621;-72
2022/02/16 10:53:01;;;;;;;15.15;2.97;;;;;;;;;;5109983;28;20028;-66
2022/02/16 10:55:36;;;;;;;17.35;2.22;;;;;;;;;;5097091;28;20475;-69
2022/02/16 10:58:07;;;;;;;18.88;2.78;;;;;;;;;;5089973;28;20485;-67
2022/02/16 11:00:34;;;;;;;20.20;2.92;;;;;;;;;;5089700;28;20027;-68
2022/02/16 11:03:01;;;;;;;20.23;2.90;;;;;;;;;;5089027;28;20469;-65
2022/02/16 11:05:27;;;;;;;15.95;3.30;;;;;;;;;;5076711;28;20117;-66
2022/02/16 11:07:54;;;;;;;23.23;4.97;;;;;;;;;;5069203;28;20020;-69
2022/02/16 11:10:20;;;;;;;18.83;5.32;;;;;;;;;;5068749;28;20047;-66
2022/02/16 11:12:47;;;;;;;25.50;6.82;;;;;;;;;;5066872;28;20065;-67
2022/02/16 11:15:14;;;;;;;31.05;9.40;;;;;;;;;;5063193;28;20021;-65
2022/02/16 11:17:40;;;;;;;61.70;19.90;;;;;;;;;;5063302;28;20115;-71
2022/02/16 11:20:23;;;;;;;66.80;21.70;;;;;;;;;;5061916;28;20025;-69
2022/02/16 11:22:49;;;;;;;;;;;;;;;;;;5068833;28;20032;-67
2022/02/16 11:25:29;;;;;;;88.43;30.15;;;;;;;;;;5063064;28;20293;-66
2022/02/16 11:27:55;;;;;;;83.57;29.42;;;;;;;;;;5049136;28;20405;-69
2022/02/16 11:30:37;;;;;;;79.82;27.17;;;;;;;;;;5069325;28;20032;-69
2022/02/16 11:33:10;;;;;;;77.20;27.35;;;;;;;;;;5047948;28;20049;-66
2022/02/16 11:35:50;;;;;;;76.85;24.60;;;;;;;;;;5048916;28;20021;-66
2022/02/16 11:38:19;;;;;;;68.88;22.90;;;;;;;;;;5048787;28;20112;-66
2022/02/16 11:40:50;;;;;;;56.03;20.48;;;;;;;;;;5031177;28;20025;-70
2022/02/16 11:43:18;;;;;;;55.25;17.83;;;;;;;;;;5043707;28;20052;-72
2022/02/16 11:45:48;;;;;;;52.42;16.38;;;;;;;;;;5069468;28;20028;-68
2022/02/16 11:48:33;;;;;;;44.88;14.90;;;;;;;;;;5063755;28;20024;-71
2022/02/16 11:50:59;;;;;;;38.22;12.55;;;;;;;;;;5057151;28;20048;-66
2022/02/16 11:53:29;;;;;;;40.13;12.18;;;;;;;;;;5075575;28;20481;-68
2022/02/16 11:56:15;;;;;;;31.88;11.07;;;;;;;;;;5068376;28;20322;-65
2022/02/16 11:58:41;;;;;;;33.58;10.32;;;;;;;;;;5040937;28;20151;-69
2022/02/16 12:01:14;;;;;;;32.55;9.57;;;;;;;;;;5017494;28;20452;-66
2022/02/16 12:03:51;;;;;;;28.48;8.48;;;;;;;;;;5036148;28;20040;-65
2022/02/16 12:06:20;;;;;;;28.55;8.40;;;;;;;;;;5034954;28;20191;-67
2022/02/16 12:08:52;;;;;;;38.90;8.98;;;;;;;;;;5026284;28;20067;-67
2022/02/16 12:11:22;;;;;;;27.42;8.32;;;;;;;;;;5056314;28;20029;-69
2022/02/16 12:13:58;;;;;;;28.50;7.70;;;;;;;;;;5043083;28;20104;-66
2022/02/16 12:16:31;;;;;;;31.67;7.80;;;;;;;;;;5046899;28;20345;-68
2022/02/16 12:19:00;;;;;;;;;;;;;;;;;;5032002;28;20035;-66
2022/02/16 12:21:28;;;;;;;26.38;6.55;;;;;;;;;;5046008;28;19974;-63
2022/02/16 12:23:59;;;;;;;23.83;6.60;;;;;;;;;;5044475;28;20727;-67
2022/02/16 12:26:27;;;;;;;23.27;5.78;;;;;;;;;;5038717;28;20432;-70
2022/02/16 12:28:53;;;;;;;26.55;6.20;;;;;;;;;;5045458;28;20021;-68
2022/02/16 12:31:19;;;;;;;26.02;6.03;;;;;;;;;;5043367;28;20031;-63
2022/02/16 12:33:52;;;;;;;26.58;6.13;;;;;;;;;;5047184;28;20088;-64
2022/02/16 12:36:18;;;;;;;26.63;5.75;;;;;;;;;;5046564;28;20445;-68
2022/02/16 12:38:46;;;;;;;21.83;5.82;;;;;;;;;;5047832;28;20049;-71
2022/02/16 12:41:13;;;;;;;26.98;5.88;;;;;;;;;;5026316;28;20025;-71
2022/02/16 12:43:49;;;;;;;29.77;6.43;;;;;;;;;;5044384;28;20064;-66
2022/02/16 12:46:15;;;;;;;22.75;5.47;;;;;;;;;;5039449;28;20120;-63
2022/02/16 12:48:50;;;;;;;26.70;6.18;;;;;;;;;;5020029;28;20025;-68
2022/02/16 12:51:35;;;;;;;21.98;5.78;;;;;;;;;;5044919;28;20018;-66
2022/02/16 12:54:10;;;;;;;13.43;4.18;;;;;;;;;;5045795;28;20021;-64
2022/02/16 12:56:38;;;;;;;19.75;5.65;;;;;;;;;;5046763;28;20033;-68
2022/02/16 12:59:17;;;;;;;27.15;5.85;;;;;;;;;;5051149;28;20024;-67
2022/02/16 13:01:43;;;;;;;23.92;5.40;;;;;;;;;;5035016;28;20497;-76
2022/02/16 13:04:09;;;;;;;26.15;5.95;;;;;;;;;;5039810;28;20017;-65
2022/02/16 13:06:54;;;;;;;23.50;5.00;;;;;;;;;;5042285;28;20071;-68
2022/02/16 13:09:21;;;;;;;22.25;5.70;;;;;;;;;;5047973;28;20025;-76
2022/02/16 13:11:55;;;;;;;24.13;5.47;;;;;;;;;;5048243;28;20021;-70
2022/02/16 13:14:25;;;;;;;27.70;5.65;;;;;;;;;;5039752;28;20026;-76
2022/02/16 13:16:55;;;;;;;26.95;6.45;;;;;;;;;;5051248;28;20040;-70
2022/02/16 13:19:40;;;;;;;30.52;6.38;;;;;;;;;;5051966;28;20022;-71
2022/02/16 13:22:07;;;;;;;26.63;6.03;;;;;;;;;;5040142;28;20048;-71
2022/02/16 13:24:33;;;;;;;24.40;6.03;;;;;;;;;;5047328;28;20017;-70
2022/02/16 13:27:03;;;;;;;27.48;5.82;;;;;;;;;;5044851;28;20510;-72
2022/02/16 13:29:29;;;;;;;31.23;7.07;;;;;;;;;;5044545;28;20029;-64
2022/02/16 13:31:56;;;;;;;24.63;5.85;;;;;;;;;;5043726;28;20388;-64
2022/02/16 13:34:22;;;;;;;27.17;6.05;;;;;;;;;;5047652;28;20020;-73
2022/02/16 13:36:48;;;;;;;25.05;5.95;;;;;;;;;;5042923;28;20125;-74
2022/02/16 13:39:20;;;;;;;25.35;5.45;;;;;;;;;;5047288;28;20025;-75
2022/02/16 13:42:01;;;;;;;27.17;6.63;;;;;;;;;;5038518;28;20017;-74
2022/02/16 13:44:29;;;;;;;31.05;6.70;;;;;;;;;;5041379;28;20112;-75
2022/02/16 13:46:57;;;;;;;28.85;6.10;;;;;;;;;;5046239;28;20362;-69
2022/02/16 13:49:24;;;;;;;25.60;5.95;;;;;;;;;;5028021;28;20158;-75
2022/02/16 13:51:51;;;;;;;33.08;6.35;;;;;;;;;;5059465;28;20375;-69
2022/02/16 13:54:20;;;;;;;34.42;6.97;;;;;;;;;;5041199;28;20020;-66
2022/02/16 13:56:50;;;;;;;28.70;6.05;;;;;;;;;;5045753;28;20139;-64
2022/02/16 13:59:16;;;;;;;28.35;6.38;;;;;;;;;;5023850;28;20110;-66
2022/02/16 14:01:42;;;;;;;30.15;6.13;;;;;;;;;;5018305;28;20064;-75
2022/02/16 14:04:09;;;;;;;27.60;6.50;;;;;;;;;;5036805;28;20100;-67
2022/02/16 14:06:35;;;;;;;25.83;5.93;;;;;;;;;;5047070;28;20025;-70
2022/02/16 14:09:05;;;;;;;29.50;6.97;;;;;;;;;;5049186;28;20174;-68
2022/02/16 14:11:31;;;;;;;27.30;6.15;;;;;;;;;;5046973;28;20024;-71
2022/02/16 14:13:57;;;;;;;31.00;6.32;;;;;;;;;;5043968;28;20016;-65
2022/02/16 14:16:26;;;;;;;23.02;6.28;;;;;;;;;;5037052;28;20041;-65
2022/02/16 14:21:38;;;;;;;24.20;6.43;;;;;;;;;;5049308;28;20036;-65
2022/02/16 14:24:04;;;;;;;29.58;6.80;;;;;;;;;;5042621;28;20017;-70
2022/02/16 14:26:30;;;;;;;24.75;5.85;;;;;;;;;;5036026;28;20067;-75
2022/02/16 14:28:56;;;;;;;28.92;6.50;;;;;;;;;;5046829;28;20021;-66
2022/02/16 14:31:23;;;;;;;27.25;6.63;;;;;;;;;;5047121;28;20025;-71
2022/02/16 14:33:49;;;;;;;23.20;6.05;;;;;;;;;;5050554;28;20088;-68
2022/02/16 14:36:15;;;;;;;30.23;6.88;;;;;;;;;;5016517;28;20133;-73
2022/02/16 14:38:41;;;;;;;26.17;6.95;;;;;;;;;;5003518;28;20034;-69
2022/02/16 14:41:07;;;;;;;28.92;6.60;;;;;;;;;;5006278;28;20026;-68
2022/02/16 14:43:33;;;;;;;34.50;7.10;;;;;;;;;;5002009;28;20104;-69
2022/02/16 14:45:59;;;;;;;35.22;7.82;;;;;;;;;;5005760;28;20541;-70
2022/02/16 14:48:25;;;;;;;34.35;7.63;;;;;;;;;;5001489;28;20029;-69